Tama, Iowa
Current Conditions -  °F | °C
As of 12:55 AM on Monday 24 Nov 2014 (Local Time) from KGGI Reporting Station
Light Snow Light Snow  
Wind Chill: 20°   Ceiling: 1200
Heat Index: 32°   Visibility: 2.5mi
Dew Point: 32°   Wind: 23mph
Humidity: 99%   Direction: 310°NW
Pressure: 29.31"   Gusts: 30mph
Location:  41.97°N, 92.58°W
Report Text: KGGI 240655Z AUTO 31020G26KT 2 1/2SM -SN SCT007 BKN012 OVC019 00/00 A2931 RMK AO2 T00020000
Loading
Personal Weather Stations






























Interactive Weather Map New forecast layout! Learn more

10-Day Weather Forecast

Advertisements
Track Severe Weather on mobile